sensor_id;sensor_type;location;lat;lon;timestamp;temperature;humidity
13610;DHT22;6876;50.788;4.940;2023-06-10T00:01:40;20.50;1.00
13610;DHT22;6876;50.788;4.940;2023-06-10T00:04:29;20.60;1.00
13610;DHT22;6876;50.788;4.940;2023-06-10T00:07:17;20.60;1.00
13610;DHT22;6876;50.788;4.940;2023-06-10T00:10:05;20.50;1.00
13610;DHT22;6876;50.788;4.940;2023-06-10T00:12:52;20.40;15.10
13610;DHT22;6876;50.788;4.940;2023-06-10T00:15:40;20.20;99.90
13610;DHT22;6876;50.788;4.940;2023-06-10T00:18:27;19.90;99.90
13610;DHT22;6876;50.788;4.940;2023-06-10T00:21:17;19.90;99.90
13610;DHT22;6876;50.788;4.940;2023-06-10T00:24:07;19.80;99.90
13610;DHT22;6876;50.788;4.940;2023-06-10T00:26:57;19.90;99.90
13610;DHT22;6876;50.788;4.940;2023-06-10T00:29:44;19.90;99.90
13610;DHT22;6876;50.788;4.940;2023-06-10T00:32:32;20.00;99.90
13610;DHT22;6876;50.788;4.940;2023-06-10T00:35:19;20.00;99.90
13610;DHT22;6876;50.788;4.940;2023-06-10T00:38:06;19.70;1.00
13610;DHT22;6876;50.788;4.940;2023-06-10T00:40:55;19.60;28.00
13610;DHT22;6876;50.788;4.940;2023-06-10T00:43:42;19.60;10.30
13610;DHT22;6876;50.788;4.940;2023-06-10T00:46:30;19.40;99.90
13610;DHT22;6876;50.788;4.940;2023-06-10T00:49:19;19.30;99.90
13610;DHT22;6876;50.788;4.940;2023-06-10T00:52:07;19.20;1.00
13610;DHT22;6876;50.788;4.940;2023-06-10T00:54:56;19.10;1.00
13610;DHT22;6876;50.788;4.940;2023-06-10T00:57:45;19.10;1.00
13610;DHT22;6876;50.788;4.940;2023-06-10T01:00:34;19.00;1.00
13610;DHT22;6876;50.788;4.940;2023-06-10T01:03:21;19.00;1.00
13610;DHT22;6876;50.788;4.940;2023-06-10T01:06:16;19.00;99.90
13610;DHT22;6876;50.788;4.940;2023-06-10T01:09:12;19.00;99.90
13610;DHT22;6876;50.788;4.940;2023-06-10T01:12:05;18.90;99.90
13610;DHT22;6876;50.788;4.940;2023-06-10T01:14:58;18.70;1.00
13610;DHT22;6876;50.788;4.940;2023-06-10T01:17:56;18.60;1.00
13610;DHT22;6876;50.788;4.940;2023-06-10T01:20:44;18.50;1.00
13610;DHT22;6876;50.788;4.940;2023-06-10T01:23:33;18.50;99.90
13610;DHT22;6876;50.788;4.940;2023-06-10T01:26:23;18.50;99.90
13610;DHT22;6876;50.788;4.940;2023-06-10T01:29:15;18.50;99.90
13610;DHT22;6876;50.788;4.940;2023-06-10T01:32:09;18.40;99.90
13610;DHT22;6876;50.788;4.940;2023-06-10T01:34:59;18.30;1.00
13610;DHT22;6876;50.788;4.940;2023-06-10T01:37:49;18.30;1.00
13610;DHT22;6876;50.788;4.940;2023-06-10T01:40:39;18.40;1.00
13610;DHT22;6876;50.788;4.940;2023-06-10T01:43:27;18.30;1.00
13610;DHT22;6876;50.788;4.940;2023-06-10T01:46:14;18.30;1.00
13610;DHT22;6876;50.788;4.940;2023-06-10T01:49:05;18.30;1.00
13610;DHT22;6876;50.788;4.940;2023-06-10T01:51:53;18.20;1.00
13610;DHT22;6876;50.788;4.940;2023-06-10T01:54:40;18.30;1.00
13610;DHT22;6876;50.788;4.940;2023-06-10T01:57:29;18.30;1.00
13610;DHT22;6876;50.788;4.940;2023-06-10T02:00:16;18.60;1.00
13610;DHT22;6876;50.788;4.940;2023-06-10T02:03:04;18.70;99.90
13610;DHT22;6876;50.788;4.940;2023-06-10T02:05:51;18.60;99.90
13610;DHT22;6876;50.788;4.940;2023-06-10T02:08:38;18.50;1.00
13610;DHT22;6876;50.788;4.940;2023-06-10T02:11:25;18.50;1.00
13610;DHT22;6876;50.788;4.940;2023-06-10T02:14:14;18.60;1.00
13610;DHT22;6876;50.788;4.940;2023-06-10T02:17:02;18.70;1.00
13610;DHT22;6876;50.788;4.940;2023-06-10T02:19:50;18.80;1.00
13610;DHT22;6876;50.788;4.940;2023-06-10T02:22:39;18.80;1.00
13610;DHT22;6876;50.788;4.940;2023-06-10T02:25:26;18.90;1.00
13610;DHT22;6876;50.788;4.940;2023-06-10T02:28:13;18.90;99.90
13610;DHT22;6876;50.788;4.940;2023-06-10T02:31:02;18.90;99.90
13610;DHT22;6876;50.788;4.940;2023-06-10T02:33:49;18.90;99.90
13610;DHT22;6876;50.788;4.940;2023-06-10T02:36:37;18.90;99.90
13610;DHT22;6876;50.788;4.940;2023-06-10T02:39:24;18.80;99.90
13610;DHT22;6876;50.788;4.940;2023-06-10T02:42:11;18.80;99.90
13610;DHT22;6876;50.788;4.940;2023-06-10T02:44:58;18.80;99.90
13610;DHT22;6876;50.788;4.940;2023-06-10T02:47:48;18.80;99.90
13610;DHT22;6876;50.788;4.940;2023-06-10T02:50:35;18.70;99.90
13610;DHT22;6876;50.788;4.940;2023-06-10T02:53:24;18.70;1.00
13610;DHT22;6876;50.788;4.940;2023-06-10T02:56:11;18.70;1.00
13610;DHT22;6876;50.788;4.940;2023-06-10T02:58:59;18.70;1.00
13610;DHT22;6876;50.788;4.940;2023-06-10T03:01:46;18.70;1.00
13610;DHT22;6876;50.788;4.940;2023-06-10T03:04:34;18.70;1.00
13610;DHT22;6876;50.788;4.940;2023-06-10T03:07:23;18.70;1.00
13610;DHT22;6876;50.788;4.940;2023-06-10T03:10:12;18.70;1.00
13610;DHT22;6876;50.788;4.940;2023-06-10T03:12:59;18.60;1.00
13610;DHT22;6876;50.788;4.940;2023-06-10T03:15:46;18.60;1.00
13610;DHT22;6876;50.788;4.940;2023-06-10T03:18:33;18.60;1.00
13610;DHT22;6876;50.788;4.940;2023-06-10T03:21:22;18.60;1.00
13610;DHT22;6876;50.788;4.940;2023-06-10T03:24:09;18.50;92.10
13610;DHT22;6876;50.788;4.940;2023-06-10T03:26:57;18.50;99.90
13610;DHT22;6876;50.788;4.940;2023-06-10T03:29:44;18.40;99.90
13610;DHT22;6876;50.788;4.940;2023-06-10T03:32:32;18.40;1.00
13610;DHT22;6876;50.788;4.940;2023-06-10T03:35:19;18.40;1.00
13610;DHT22;6876;50.788;4.940;2023-06-10T03:38:08;18.30;1.00
13610;DHT22;6876;50.788;4.940;2023-06-10T03:40:55;18.30;1.00
13610;DHT22;6876;50.788;4.940;2023-06-10T03:43:42;18.30;1.00
13610;DHT22;6876;50.788;4.940;2023-06-10T03:46:30;18.30;99.90
13610;DHT22;6876;50.788;4.940;2023-06-10T03:49:17;18.30;1.00
13610;DHT22;6876;50.788;4.940;2023-06-10T03:52:05;18.30;1.00
13610;DHT22;6876;50.788;4.940;2023-06-10T03:54:54;18.30;99.90
13610;DHT22;6876;50.788;4.940;2023-06-10T03:57:41;18.30;1.00
13610;DHT22;6876;50.788;4.940;2023-06-10T04:00:28;18.30;1.00
13610;DHT22;6876;50.788;4.940;2023-06-10T04:03:15;18.20;99.90
13610;DHT22;6876;50.788;4.940;2023-06-10T04:06:03;18.20;7.30
13610;DHT22;6876;50.788;4.940;2023-06-10T04:08:50;18.20;1.00
13610;DHT22;6876;50.788;4.940;2023-06-10T04:11:39;18.20;99.90
13610;DHT22;6876;50.788;4.940;2023-06-10T04:14:26;18.40;99.90
13610;DHT22;6876;50.788;4.940;2023-06-10T04:17:13;18.80;1.00
13610;DHT22;6876;50.788;4.940;2023-06-10T04:20:01;19.30;1.00
13610;DHT22;6876;50.788;4.940;2023-06-10T04:22:48;19.70;99.90
13610;DHT22;6876;50.788;4.940;2023-06-10T04:25:35;20.00;36.00
13610;DHT22;6876;50.788;4.940;2023-06-10T04:28:24;20.40;1.00
13610;DHT22;6876;50.788;4.940;2023-06-10T04:31:11;20.80;1.00
13610;DHT22;6876;50.788;4.940;2023-06-10T04:33:59;21.30;99.90
13610;DHT22;6876;50.788;4.940;2023-06-10T04:36:46;21.70;99.90
13610;DHT22;6876;50.788;4.940;2023-06-10T04:39:33;22.20;99.90
13610;DHT22;6876;50.788;4.940;2023-06-10T04:42:21;22.70;99.90
13610;DHT22;6876;50.788;4.940;2023-06-10T04:45:10;22.90;99.90
13610;DHT22;6876;50.788;4.940;2023-06-10T04:47:57;22.90;99.90
13610;DHT22;6876;50.788;4.940;2023-06-10T04:50:44;23.20;99.90
13610;DHT22;6876;50.788;4.940;2023-06-10T04:53:32;23.40;99.90
13610;DHT22;6876;50.788;4.940;2023-06-10T04:56:19;23.70;99.90
13610;DHT22;6876;50.788;4.940;2023-06-10T04:59:08;24.10;99.90
13610;DHT22;6876;50.788;4.940;2023-06-10T05:01:56;24.20;99.90
13610;DHT22;6876;50.788;4.940;2023-06-10T05:04:44;24.40;99.90
13610;DHT22;6876;50.788;4.940;2023-06-10T05:07:32;24.80;72.90
13610;DHT22;6876;50.788;4.940;2023-06-10T05:10:19;25.00;16.10
13610;DHT22;6876;50.788;4.940;2023-06-10T05:13:06;25.20;15.50
13610;DHT22;6876;50.788;4.940;2023-06-10T05:15:53;25.20;16.30
13610;DHT22;6876;50.788;4.940;2023-06-10T05:18:42;25.20;13.90
13610;DHT22;6876;50.788;4.940;2023-06-10T05:21:29;25.60;1.00
13610;DHT22;6876;50.788;4.940;2023-06-10T05:24:16;25.80;1.00
13610;DHT22;6876;50.788;4.940;2023-06-10T05:27:04;26.30;1.00
13610;DHT22;6876;50.788;4.940;2023-06-10T05:29:52;26.50;1.00
13610;DHT22;6876;50.788;4.940;2023-06-10T05:32:39;26.50;1.00
13610;DHT22;6876;50.788;4.940;2023-06-10T05:35:28;26.80;1.00
13610;DHT22;6876;50.788;4.940;2023-06-10T05:38:15;27.60;1.00
13610;DHT22;6876;50.788;4.940;2023-06-10T05:41:03;27.60;1.00
13610;DHT22;6876;50.788;4.940;2023-06-10T05:43:50;27.80;1.00
13610;DHT22;6876;50.788;4.940;2023-06-10T05:46:37;27.70;1.00
13610;DHT22;6876;50.788;4.940;2023-06-10T05:49:24;27.70;1.00
13610;DHT22;6876;50.788;4.940;2023-06-10T05:52:13;27.80;1.00
13610;DHT22;6876;50.788;4.940;2023-06-10T05:55:00;28.10;1.00
13610;DHT22;6876;50.788;4.940;2023-06-10T05:57:48;28.30;1.00
13610;DHT22;6876;50.788;4.940;2023-06-10T06:00:44;28.30;1.00
13610;DHT22;6876;50.788;4.940;2023-06-10T06:03:32;28.30;1.00
13610;DHT22;6876;50.788;4.940;2023-06-10T06:06:19;28.70;1.00
13610;DHT22;6876;50.788;4.940;2023-06-10T06:09:08;28.70;1.00
13610;DHT22;6876;50.788;4.940;2023-06-10T06:11:56;28.50;1.00
13610;DHT22;6876;50.788;4.940;2023-06-10T06:14:43;28.80;1.00
13610;DHT22;6876;50.788;4.940;2023-06-10T06:17:30;29.20;1.00
13610;DHT22;6876;50.788;4.940;2023-06-10T06:20:18;29.90;1.00
13610;DHT22;6876;50.788;4.940;2023-06-10T06:23:05;29.70;1.00
13610;DHT22;6876;50.788;4.940;2023-06-10T06:25:56;29.30;1.00
13610;DHT22;6876;50.788;4.940;2023-06-10T06:28:43;28.90;1.00
13610;DHT22;6876;50.788;4.940;2023-06-10T06:31:30;29.80;1.00
13610;DHT22;6876;50.788;4.940;2023-06-10T06:34:18;29.70;1.00
13610;DHT22;6876;50.788;4.940;2023-06-10T06:37:05;29.90;1.00
13610;DHT22;6876;50.788;4.940;2023-06-10T06:39:53;30.10;1.00
13610;DHT22;6876;50.788;4.940;2023-06-10T06:42:42;30.50;1.00
13610;DHT22;6876;50.788;4.940;2023-06-10T06:45:29;30.90;1.00
13610;DHT22;6876;50.788;4.940;2023-06-10T06:48:16;31.30;1.00
13610;DHT22;6876;50.788;4.940;2023-06-10T06:51:03;31.80;1.00
13610;DHT22;6876;50.788;4.940;2023-06-10T06:53:51;32.30;1.00
13610;DHT22;6876;50.788;4.940;2023-06-10T06:56:42;32.00;1.00
13610;DHT22;6876;50.788;4.940;2023-06-10T06:59:31;32.30;1.00
13610;DHT22;6876;50.788;4.940;2023-06-10T07:02:18;32.90;1.00
13610;DHT22;6876;50.788;4.940;2023-06-10T07:05:06;32.60;1.00
13610;DHT22;6876;50.788;4.940;2023-06-10T07:07:53;32.80;1.00
13610;DHT22;6876;50.788;4.940;2023-06-10T07:10:42;33.30;1.00
13610;DHT22;6876;50.788;4.940;2023-06-10T07:13:29;33.80;1.00
13610;DHT22;6876;50.788;4.940;2023-06-10T07:16:18;33.60;99.90
13610;DHT22;6876;50.788;4.940;2023-06-10T07:19:06;33.30;99.90
13610;DHT22;6876;50.788;4.940;2023-06-10T07:21:54;33.40;99.90
13610;DHT22;6876;50.788;4.940;2023-06-10T07:24:41;33.60;99.90
13610;DHT22;6876;50.788;4.940;2023-06-10T07:27:28;33.40;99.90
13610;DHT22;6876;50.788;4.940;2023-06-10T07:30:16;33.40;99.90
13610;DHT22;6876;50.788;4.940;2023-06-10T07:33:04;33.70;99.90
13610;DHT22;6876;50.788;4.940;2023-06-10T07:35:53;33.80;99.90
13610;DHT22;6876;50.788;4.940;2023-06-10T07:38:41;34.10;99.90
13610;DHT22;6876;50.788;4.940;2023-06-10T07:41:28;34.10;99.90
13610;DHT22;6876;50.788;4.940;2023-06-10T07:44:15;34.40;99.90
13610;DHT22;6876;50.788;4.940;2023-06-10T07:47:03;34.40;99.90
13610;DHT22;6876;50.788;4.940;2023-06-10T07:49:52;35.10;99.90
13610;DHT22;6876;50.788;4.940;2023-06-10T07:52:39;35.20;99.90
13610;DHT22;6876;50.788;4.940;2023-06-10T07:55:27;35.60;99.90
13610;DHT22;6876;50.788;4.940;2023-06-10T07:58:14;35.40;99.90
13610;DHT22;6876;50.788;4.940;2023-06-10T08:01:01;35.00;99.90
13610;DHT22;6876;50.788;4.940;2023-06-10T08:03:49;35.00;99.90
13610;DHT22;6876;50.788;4.940;2023-06-10T08:06:37;35.30;99.90
13610;DHT22;6876;50.788;4.940;2023-06-10T08:09:24;35.60;99.90
13610;DHT22;6876;50.788;4.940;2023-06-10T08:12:11;36.10;99.90
13610;DHT22;6876;50.788;4.940;2023-06-10T08:14:59;35.80;99.90
13610;DHT22;6876;50.788;4.940;2023-06-10T08:17:46;36.10;99.90
13610;DHT22;6876;50.788;4.940;2023-06-10T08:20:33;36.30;99.90
13610;DHT22;6876;50.788;4.940;2023-06-10T08:23:22;36.60;99.90
13610;DHT22;6876;50.788;4.940;2023-06-10T08:26:10;36.20;99.90
13610;DHT22;6876;50.788;4.940;2023-06-10T08:28:57;36.60;99.90
13610;DHT22;6876;50.788;4.940;2023-06-10T08:31:44;36.90;99.90
13610;DHT22;6876;50.788;4.940;2023-06-10T08:34:32;37.00;99.90
13610;DHT22;6876;50.788;4.940;2023-06-10T08:37:20;36.80;99.90
13610;DHT22;6876;50.788;4.940;2023-06-10T08:40:10;36.80;99.90
13610;DHT22;6876;50.788;4.940;2023-06-10T08:43:03;37.00;99.90
13610;DHT22;6876;50.788;4.940;2023-06-10T08:45:52;37.60;99.90
13610;DHT22;6876;50.788;4.940;2023-06-10T08:48:44;37.50;99.90
13610;DHT22;6876;50.788;4.940;2023-06-10T08:51:35;37.10;99.90
13610;DHT22;6876;50.788;4.940;2023-06-10T08:54:25;37.40;99.90
13610;DHT22;6876;50.788;4.940;2023-06-10T08:57:15;36.80;99.90
13610;DHT22;6876;50.788;4.940;2023-06-10T09:00:05;36.80;99.90
13610;DHT22;6876;50.788;4.940;2023-06-10T09:02:53;37.60;99.90
13610;DHT22;6876;50.788;4.940;2023-06-10T09:05:41;38.00;99.90
13610;DHT22;6876;50.788;4.940;2023-06-10T09:08:28;38.50;99.90
13610;DHT22;6876;50.788;4.940;2023-06-10T09:11:16;38.30;99.90
13610;DHT22;6876;50.788;4.940;2023-06-10T09:14:04;38.00;99.90
13610;DHT22;6876;50.788;4.940;2023-06-10T09:16:52;37.50;99.90
13610;DHT22;6876;50.788;4.940;2023-06-10T09:19:44;38.10;99.90
13610;DHT22;6876;50.788;4.940;2023-06-10T09:22:32;38.20;99.90
13610;DHT22;6876;50.788;4.940;2023-06-10T09:25:34;38.10;99.90
13610;DHT22;6876;50.788;4.940;2023-06-10T09:28:22;38.20;99.90
13610;DHT22;6876;50.788;4.940;2023-06-10T09:31:11;38.30;99.90
13610;DHT22;6876;50.788;4.940;2023-06-10T09:34:07;38.30;99.90
13610;DHT22;6876;50.788;4.940;2023-06-10T09:36:54;37.70;99.90
13610;DHT22;6876;50.788;4.940;2023-06-10T09:39:42;37.80;99.90
13610;DHT22;6876;50.788;4.940;2023-06-10T09:42:32;37.90;99.90
13610;DHT22;6876;50.788;4.940;2023-06-10T09:45:20;38.00;99.90
13610;DHT22;6876;50.788;4.940;2023-06-10T09:48:09;37.40;99.90
13610;DHT22;6876;50.788;4.940;2023-06-10T09:50:56;37.20;99.90
13610;DHT22;6876;50.788;4.940;2023-06-10T09:53:48;37.20;99.90
13610;DHT22;6876;50.788;4.940;2023-06-10T09:56:36;36.70;99.90
13610;DHT22;6876;50.788;4.940;2023-06-10T09:59:29;36.00;99.90
13610;DHT22;6876;50.788;4.940;2023-06-10T10:02:18;36.40;99.90
13610;DHT22;6876;50.788;4.940;2023-06-10T10:05:07;36.40;99.90
13610;DHT22;6876;50.788;4.940;2023-06-10T10:07:54;36.40;99.90
13610;DHT22;6876;50.788;4.940;2023-06-10T10:10:42;36.10;99.90
13610;DHT22;6876;50.788;4.940;2023-06-10T10:13:33;35.90;99.90
13610;DHT22;6876;50.788;4.940;2023-06-10T10:16:22;36.20;99.90
13610;DHT22;6876;50.788;4.940;2023-06-10T10:19:18;35.90;99.90
13610;DHT22;6876;50.788;4.940;2023-06-10T10:22:12;35.30;99.90
13610;DHT22;6876;50.788;4.940;2023-06-10T10:25:04;35.50;99.90
13610;DHT22;6876;50.788;4.940;2023-06-10T10:27:57;35.50;99.90
13610;DHT22;6876;50.788;4.940;2023-06-10T10:30:48;35.40;99.90
13610;DHT22;6876;50.788;4.940;2023-06-10T10:33:42;35.70;99.90
13610;DHT22;6876;50.788;4.940;2023-06-10T10:36:32;35.60;99.90
13610;DHT22;6876;50.788;4.940;2023-06-10T10:39:21;35.80;99.90
13610;DHT22;6876;50.788;4.940;2023-06-10T10:42:09;36.10;99.90
13610;DHT22;6876;50.788;4.940;2023-06-10T10:44:57;35.80;99.90
13610;DHT22;6876;50.788;4.940;2023-06-10T10:47:46;35.50;99.90
13610;DHT22;6876;50.788;4.940;2023-06-10T10:50:33;35.30;99.90
13610;DHT22;6876;50.788;4.940;2023-06-10T10:53:20;35.40;99.90
13610;DHT22;6876;50.788;4.940;2023-06-10T10:56:14;35.40;99.90
13610;DHT22;6876;50.788;4.940;2023-06-10T10:59:04;35.30;99.90
13610;DHT22;6876;50.788;4.940;2023-06-10T11:01:51;35.60;84.50
13610;DHT22;6876;50.788;4.940;2023-06-10T11:04:44;35.60;87.90
13610;DHT22;6876;50.788;4.940;2023-06-10T11:07:34;35.20;76.00
13610;DHT22;6876;50.788;4.940;2023-06-10T11:10:29;34.80;75.20
13610;DHT22;6876;50.788;4.940;2023-06-10T11:13:19;34.80;85.20
13610;DHT22;6876;50.788;4.940;2023-06-10T11:16:08;34.80;76.80
13610;DHT22;6876;50.788;4.940;2023-06-10T11:18:57;35.20;90.60
13610;DHT22;6876;50.788;4.940;2023-06-10T11:21:59;35.30;73.10
13610;DHT22;6876;50.788;4.940;2023-06-10T11:24:50;34.80;73.20
13610;DHT22;6876;50.788;4.940;2023-06-10T11:27:38;34.80;71.90
13610;DHT22;6876;50.788;4.940;2023-06-10T11:30:34;34.30;71.00
13610;DHT22;6876;50.788;4.940;2023-06-10T11:33:28;34.30;70.90
13610;DHT22;6876;50.788;4.940;2023-06-10T11:36:17;34.00;68.90
13610;DHT22;6876;50.788;4.940;2023-06-10T11:39:06;33.80;70.10
13610;DHT22;6876;50.788;4.940;2023-06-10T11:41:55;33.50;69.10
13610;DHT22;6876;50.788;4.940;2023-06-10T11:44:48;33.50;70.70
13610;DHT22;6876;50.788;4.940;2023-06-10T11:47:37;33.30;69.50
13610;DHT22;6876;50.788;4.940;2023-06-10T11:50:31;33.60;94.00
13610;DHT22;6876;50.788;4.940;2023-06-10T11:53:19;34.00;68.90
13610;DHT22;6876;50.788;4.940;2023-06-10T11:56:07;33.60;68.80
13610;DHT22;6876;50.788;4.940;2023-06-10T11:58:55;32.60;65.80
13610;DHT22;6876;50.788;4.940;2023-06-10T12:01:44;32.00;66.40
13610;DHT22;6876;50.788;4.940;2023-06-10T12:04:33;32.60;68.10
13610;DHT22;6876;50.788;4.940;2023-06-10T12:07:20;33.30;66.70
13610;DHT22;6876;50.788;4.940;2023-06-10T12:10:09;33.70;69.20
13610;DHT22;6876;50.788;4.940;2023-06-10T12:12:56;33.20;67.70
13610;DHT22;6876;50.788;4.940;2023-06-10T12:15:43;32.60;68.10
13610;DHT22;6876;50.788;4.940;2023-06-10T12:18:31;32.60;68.30
13610;DHT22;6876;50.788;4.940;2023-06-10T12:21:24;32.70;67.60
13610;DHT22;6876;50.788;4.940;2023-06-10T12:24:12;32.50;92.80
13610;DHT22;6876;50.788;4.940;2023-06-10T12:26:59;32.60;66.80
13610;DHT22;6876;50.788;4.940;2023-06-10T12:29:51;32.50;67.70
13610;DHT22;6876;50.788;4.940;2023-06-10T12:32:42;32.50;67.80
13610;DHT22;6876;50.788;4.940;2023-06-10T12:35:29;32.60;65.60
13610;DHT22;6876;50.788;4.940;2023-06-10T12:38:22;32.70;68.90
13610;DHT22;6876;50.788;4.940;2023-06-10T12:41:10;32.70;68.10
13610;DHT22;6876;50.788;4.940;2023-06-10T12:43:58;32.80;68.10
13610;DHT22;6876;50.788;4.940;2023-06-10T12:46:45;32.90;68.40
13610;DHT22;6876;50.788;4.940;2023-06-10T12:49:32;32.90;66.60
13610;DHT22;6876;50.788;4.940;2023-06-10T12:52:21;32.90;70.40
13610;DHT22;6876;50.788;4.940;2023-06-10T12:55:09;33.00;67.60
13610;DHT22;6876;50.788;4.940;2023-06-10T12:57:57;32.80;93.50
13610;DHT22;6876;50.788;4.940;2023-06-10T13:00:44;32.60;67.50
13610;DHT22;6876;50.788;4.940;2023-06-10T13:03:31;32.50;66.30
13610;DHT22;6876;50.788;4.940;2023-06-10T13:06:18;32.60;92.30
13610;DHT22;6876;50.788;4.940;2023-06-10T13:09:06;32.50;92.50
13610;DHT22;6876;50.788;4.940;2023-06-10T13:11:55;32.50;68.90
13610;DHT22;6876;50.788;4.940;2023-06-10T13:14:42;32.20;65.10
13610;DHT22;6876;50.788;4.940;2023-06-10T13:17:30;32.10;68.20
13610;DHT22;6876;50.788;4.940;2023-06-10T13:20:17;32.00;66.40
13610;DHT22;6876;50.788;4.940;2023-06-10T13:23:05;32.10;67.80
13610;DHT22;6876;50.788;4.940;2023-06-10T13:25:52;32.00;95.00
13610;DHT22;6876;50.788;4.940;2023-06-10T13:28:40;31.90;70.10
13610;DHT22;6876;50.788;4.940;2023-06-10T13:31:28;32.00;68.60
13610;DHT22;6876;50.788;4.940;2023-06-10T13:34:15;32.10;94.00
13610;DHT22;6876;50.788;4.940;2023-06-10T13:37:02;32.00;70.70
13610;DHT22;6876;50.788;4.940;2023-06-10T13:39:51;32.00;71.00
13610;DHT22;6876;50.788;4.940;2023-06-10T13:42:38;31.80;69.50
13610;DHT22;6876;50.788;4.940;2023-06-10T13:45:27;31.70;67.70
13610;DHT22;6876;50.788;4.940;2023-06-10T13:48:15;31.80;68.90
13610;DHT22;6876;50.788;4.940;2023-06-10T13:51:02;31.80;92.60
13610;DHT22;6876;50.788;4.940;2023-06-10T13:53:49;31.90;69.60
13610;DHT22;6876;50.788;4.940;2023-06-10T13:56:37;31.90;94.20
13610;DHT22;6876;50.788;4.940;2023-06-10T13:59:25;31.70;66.90
13610;DHT22;6876;50.788;4.940;2023-06-10T14:02:13;31.60;67.80
13610;DHT22;6876;50.788;4.940;2023-06-10T14:05:00;31.70;65.90
13610;DHT22;6876;50.788;4.940;2023-06-10T14:07:48;31.80;67.70
13610;DHT22;6876;50.788;4.940;2023-06-10T14:10:35;31.60;67.70
13610;DHT22;6876;50.788;4.940;2023-06-10T14:13:23;31.50;66.50
13610;DHT22;6876;50.788;4.940;2023-06-10T14:16:10;31.40;66.70
13610;DHT22;6876;50.788;4.940;2023-06-10T14:18:58;31.60;68.50
13610;DHT22;6876;50.788;4.940;2023-06-10T14:21:46;31.70;66.60
13610;DHT22;6876;50.788;4.940;2023-06-10T14:24:36;31.60;67.50
13610;DHT22;6876;50.788;4.940;2023-06-10T14:27:24;31.60;66.30
13610;DHT22;6876;50.788;4.940;2023-06-10T14:30:11;31.70;68.30
13610;DHT22;6876;50.788;4.940;2023-06-10T14:32:59;31.60;66.30
13610;DHT22;6876;50.788;4.940;2023-06-10T14:35:47;31.60;67.10
13610;DHT22;6876;50.788;4.940;2023-06-10T14:38:34;31.60;66.00
13610;DHT22;6876;50.788;4.940;2023-06-10T14:41:22;31.50;65.50
13610;DHT22;6876;50.788;4.940;2023-06-10T14:44:09;31.70;93.30
13610;DHT22;6876;50.788;4.940;2023-06-10T14:46:56;31.60;68.70
13610;DHT22;6876;50.788;4.940;2023-06-10T14:49:44;31.80;66.20
13610;DHT22;6876;50.788;4.940;2023-06-10T14:52:32;31.60;67.40
13610;DHT22;6876;50.788;4.940;2023-06-10T14:55:20;31.70;66.40
13610;DHT22;6876;50.788;4.940;2023-06-10T14:58:11;31.70;66.10
13610;DHT22;6876;50.788;4.940;2023-06-10T15:01:00;31.60;66.70
13610;DHT22;6876;50.788;4.940;2023-06-10T15:03:47;31.70;44.20
13610;DHT22;6876;50.788;4.940;2023-06-10T15:06:35;31.80;66.00
13610;DHT22;6876;50.788;4.940;2023-06-10T15:09:23;31.70;66.60
13610;DHT22;6876;50.788;4.940;2023-06-10T15:12:11;31.80;66.50
13610;DHT22;6876;50.788;4.940;2023-06-10T15:14:58;31.90;68.40
13610;DHT22;6876;50.788;4.940;2023-06-10T15:17:45;32.00;70.70
13610;DHT22;6876;50.788;4.940;2023-06-10T15:20:32;32.00;70.20
13610;DHT22;6876;50.788;4.940;2023-06-10T15:23:20;31.60;71.70
13610;DHT22;6876;50.788;4.940;2023-06-10T15:26:10;31.50;69.70
13610;DHT22;6876;50.788;4.940;2023-06-10T15:28:58;31.50;70.90
13610;DHT22;6876;50.788;4.940;2023-06-10T15:31:49;31.30;68.60
13610;DHT22;6876;50.788;4.940;2023-06-10T15:34:37;31.20;70.40
13610;DHT22;6876;50.788;4.940;2023-06-10T15:37:24;31.40;69.50
13610;DHT22;6876;50.788;4.940;2023-06-10T15:40:11;31.50;68.70
13610;DHT22;6876;50.788;4.940;2023-06-10T15:43:00;31.40;69.20
13610;DHT22;6876;50.788;4.940;2023-06-10T15:45:47;31.40;71.80
13610;DHT22;6876;50.788;4.940;2023-06-10T15:48:35;31.40;71.90
13610;DHT22;6876;50.788;4.940;2023-06-10T15:51:22;31.50;96.10
13610;DHT22;6876;50.788;4.940;2023-06-10T15:54:09;31.40;70.80
13610;DHT22;6876;50.788;4.940;2023-06-10T15:56:57;31.30;76.70
13610;DHT22;6876;50.788;4.940;2023-06-10T15:59:45;31.30;71.30
13610;DHT22;6876;50.788;4.940;2023-06-10T16:02:32;31.10;72.30
13610;DHT22;6876;50.788;4.940;2023-06-10T16:05:20;31.00;71.40
13610;DHT22;6876;50.788;4.940;2023-06-10T16:08:07;30.70;97.20
13610;DHT22;6876;50.788;4.940;2023-06-10T16:10:54;30.70;72.40
13610;DHT22;6876;50.788;4.940;2023-06-10T16:13:41;30.70;70.30
13610;DHT22;6876;50.788;4.940;2023-06-10T16:16:30;30.70;71.30
13610;DHT22;6876;50.788;4.940;2023-06-10T16:19:17;30.70;69.60
13610;DHT22;6876;50.788;4.940;2023-06-10T16:22:04;30.70;73.10
13610;DHT22;6876;50.788;4.940;2023-06-10T16:24:52;30.80;72.30
13610;DHT22;6876;50.788;4.940;2023-06-10T16:27:39;30.70;70.40
13610;DHT22;6876;50.788;4.940;2023-06-10T16:30:26;30.90;74.10
13610;DHT22;6876;50.788;4.940;2023-06-10T16:33:15;31.00;73.80
13610;DHT22;6876;50.788;4.940;2023-06-10T16:36:03;31.00;72.70
13610;DHT22;6876;50.788;4.940;2023-06-10T16:38:50;30.90;70.60
13610;DHT22;6876;50.788;4.940;2023-06-10T16:41:37;30.70;73.10
13610;DHT22;6876;50.788;4.940;2023-06-10T16:44:25;30.60;70.30
13610;DHT22;6876;50.788;4.940;2023-06-10T16:47:12;30.50;70.80
13610;DHT22;6876;50.788;4.940;2023-06-10T16:50:01;30.40;71.60
13610;DHT22;6876;50.788;4.940;2023-06-10T16:52:49;30.30;69.20
13610;DHT22;6876;50.788;4.940;2023-06-10T16:55:36;30.20;70.60
13610;DHT22;6876;50.788;4.940;2023-06-10T16:58:24;30.10;71.40
13610;DHT22;6876;50.788;4.940;2023-06-10T17:01:11;30.10;69.60
13610;DHT22;6876;50.788;4.940;2023-06-10T17:03:59;30.20;69.90
13610;DHT22;6876;50.788;4.940;2023-06-10T17:06:47;30.30;69.60
13610;DHT22;6876;50.788;4.940;2023-06-10T17:09:35;30.40;69.50
13610;DHT22;6876;50.788;4.940;2023-06-10T17:12:22;30.30;69.90
13610;DHT22;6876;50.788;4.940;2023-06-10T17:15:10;30.30;69.60
13610;DHT22;6876;50.788;4.940;2023-06-10T17:17:58;30.30;69.00
13610;DHT22;6876;50.788;4.940;2023-06-10T17:20:45;30.40;70.80
13610;DHT22;6876;50.788;4.940;2023-06-10T17:23:33;30.30;70.50
13610;DHT22;6876;50.788;4.940;2023-06-10T17:26:21;30.30;69.40
13610;DHT22;6876;50.788;4.940;2023-06-10T17:29:08;30.30;70.90
13610;DHT22;6876;50.788;4.940;2023-06-10T17:31:56;30.30;70.10
13610;DHT22;6876;50.788;4.940;2023-06-10T17:34:43;30.30;71.30
13610;DHT22;6876;50.788;4.940;2023-06-10T17:37:30;30.10;72.50
13610;DHT22;6876;50.788;4.940;2023-06-10T17:40:19;30.10;70.40
13610;DHT22;6876;50.788;4.940;2023-06-10T17:43:06;30.10;83.00
13610;DHT22;6876;50.788;4.940;2023-06-10T17:45:53;30.00;70.30
13610;DHT22;6876;50.788;4.940;2023-06-10T17:48:42;29.80;68.20
13610;DHT22;6876;50.788;4.940;2023-06-10T17:51:29;29.80;67.90
13610;DHT22;6876;50.788;4.940;2023-06-10T17:54:16;29.60;68.70
13610;DHT22;6876;50.788;4.940;2023-06-10T17:57:05;29.70;66.30
13610;DHT22;6876;50.788;4.940;2023-06-10T17:59:52;29.60;66.60
13610;DHT22;6876;50.788;4.940;2023-06-10T18:02:40;29.60;68.50
13610;DHT22;6876;50.788;4.940;2023-06-10T18:05:27;29.50;66.90